Terminal Aerodrome Forecast
Issued by NWS Tampa Bay Area, FL

Home | Current Version | Previous Version | Text Only | Print | Product List | Glossary On
Versions: 1 2 3 4 5 6 7 8 9 10 11 12 13
619
FTUS42 KTBW 101131
TAFSRQ
TAF
KSRQ 101131Z 1012/1112 03012G18KT P6SM SCT040 BKN200
     FM101900 06012G20KT P6SM BKN050 BKN200
     FM110200 07010KT P6SM SCT050 BKN100=

USA.gov is the U.S. government's official web portal to all federal, state and local government web resources and services.